Ilheus, Brazil

8:58 AM BRT on August 24, 2016 (GMT -0300)
Ilheus | | Change Station

Elev 13 ft 14.82 °S, 39.03 °W | Updated 1 hour ago

Mostly Cloudy
Mostly Cloudy
72 °F
Feels Like 72 °F
N
9
Wind Variable Wind from South

Today
High -- | Low -- °F
--% Chance of Precip.
Yesterday
High -- | Low -- °F
Precip. -- in
Pressure 30.15 in
Visibility 5.6 miles
Clouds Scattered Clouds 1000 ft
Mostly Cloudy 2000 ft
Mostly Cloudy 7000 ft
Dew Point 70 °F
Humidity 94%
Rainfall 0.00 in
Snow Depth Not available.
5:46 AM 5:30 PM
Waning Gibbous, 57% visible
METAR SBIL 241000Z 19008KT 9000 VCSH SCT010 BKN020 BKN070 22/21 Q1021
Pressure 30.15 in
Visibility 5.6 miles
Clouds Scattered Clouds 1000 ft
Mostly Cloudy 2000 ft
Mostly Cloudy 7000 ft
Dew Point 70 °F
Humidity 94%
Rainfall 0.00 in
Snow Depth Not available.
5:46 AM 5:30 PM
Waning Gibbous, 57% visible
METAR SBIL 241000Z 19008KT 9000 VCSH SCT010 BKN020 BKN070 22/21 Q1021

10-Day Weather Forecast

No radar image for this location.
×

Almanac

Astronomy

Aug. 24, 2016 Rise Set
Actual Time
Civil Twilight
Nautical Twilight
Astronomical Twilight
Moon
Length of Visible Light
Length of Day
Tomorrow will be .
, % of the Moon is Illuminated

Today's Extremes

Country Highs Country Lows

Community

WunderPhotos

Upload Photos

1,934,571 photos uploaded!

WunderBlog® & News

Nearby

Air Quality

  Air Quality AQ Index Pollutant
Not available.

Snow Depth

Station Depth Elevation

Earthquake Activity

City Distance Mag. Time & Date
Minimum magnitude displayed is 2.5.

Coastal Water Temperatures

Place Temperature

Stations

Nearby Weather Stations

Station Location Temp. Windchill Dew Point Humidity Wind Precip. Elev Updated Type